x

Buoy E01 - Central Maine Shelf (44032) Wave Buoy

8:04pm - Fri 3rd Jul 2015 All times are EDT. -4 hours from GMT.

  • Sig Wave height 3.6ft
  • Peak Period 8s
  • Wind
    16mph, 18mph gusts
  • Sea Temp 55°f
  • 空気 Temp 60°f
  • Sea Pressure 1013.3mb
  • Buoy E01 - Central Maine Shelf
  • Buoy E01 - Central Maine Shelf

More Historic Weather Station data

Upgrade to MSW Pro to gain access to the past 30 days of data for over 8000 Wavebouys and Weather Stations around the globe.

Join Pro

Comparision Forecast

View Surf forecast
   
Fri 07/03 8:04pm 3.5ft 8s 16 18 mph 1013.3mb 55f 60f
7:04pm 3.5ft 11s 13 16 mph 1012.7mb 55f 60f
6:04pm 3.5ft 8s 13 16 mph 1012.5mb 55f 60f
5:04pm  -   -  16
mph
1012.4mb 55f 62f
4:04pm 3.5ft 11s 13
mph
1012.3mb 56f 60f
3:04pm  -   -  11
mph
1012.4mb 56f 59f
2:04pm  -   -  11 13 mph 1012.1mb 55f 59f
1:04pm 2.5ft 8s 9 11 mph 1012.1mb 55f 58f
12:04pm 3.5ft 11s 9 11 mph 1012.1mb 55f 58f
11:04am 3ft 8s 7
mph
1012.5mb 55f 57f
10:04am 3.5ft 8s 7
mph
1012.7mb 55f 57f
9:04am 3.5ft 8s 4
mph
1012.6mb 54f 57f
8:04am 3.5ft 8s 2 4 mph 1012.4mb 54f 58f
7:04am 3.5ft 8s 4
mph
1012.1mb 53f 56f
6:04am 3.5ft 8s 4 7 mph 1011.9mb 53f 56f
5:04am 3.5ft 8s 4 7 mph 1011.6mb 53f 56f
4:04am 3ft 8s 7
mph
1011.4mb 54f 57f
3:04am 3ft 8s 4 7 mph 1011.1mb 54f 57f
2:04am 3ft 8s 7
mph
1010.7mb 54f 57f
1:04am 2.5ft 8s 4
mph
1010.7mb 55f 58f
12:04am 4ft 8s 4
mph
1010.9mb 55f 57f
Thu 07/02 11:04pm 3.5ft 8s 7
mph
1011.1mb 55f 57f
10:04pm 3.5ft 8s 2 4 mph 1011.1mb 55f 57f
9:04pm 4.5ft 8s 7
mph
1010.8mb 55f 56f
8:04pm 4.5ft 8s 9
mph
1010.3mb 53f 57f
7:04pm 4.5ft 8s 9 11 mph 1010.1mb 53f 57f
6:04pm 4.5ft 8s 9 11 mph 1009.9mb 53f 58f
5:04pm 3.5ft 8s 9 11 mph 1010mb 53f 57f
4:04pm 3.5ft 8s 11 13 mph 1010.1mb 53f 58f
3:04pm 4ft 11s 7 9 mph 1010.1mb 53f 57f
2:04pm 4ft 8s 13 16 mph 1009.5mb 52f 57f
1:04pm 3.5ft 6s 13
mph
1009.8mb 52f 56f
12:04pm 4ft 6s 11 13 mph 1009.6mb 51f 56f
11:04am 4ft 6s 11 13 mph 1009.7mb 52f 55f
10:04am 5ft 8s 7 9 mph 1009.1mb 52f 54f
9:04am 5ft 8s 4 7 mph 1008.9mb 51f 54f
8:04am 4ft 6s 7 9 mph 1008.7mb 51f 54f
7:04am 4ft 5s 7
mph
1008.8mb 51f 55f
6:04am 4ft 5s 11
mph
1008.1mb 50f 55f
5:04am 4ft 5s 13 16 mph 1007.5mb 50f 55f
4:04am 3.5ft 5s 16 18 mph 1006.9mb 51f 55f
3:04am 3.5ft 5s 16 18 mph 1006.3mb 51f 56f
2:04am 3.5ft 5s 16 18 mph 1005.9mb 51f 56f
1:04am 2.5ft 5s 13 16 mph 1005.5mb 51f 56f
12:04am 3ft 5s 9 11 mph 1005.5mb 52f 55f
Wed 07/01 11:04pm 3.5ft 5s 2 4 mph 1005.4mb 51f 55f
10:04pm 4ft 8s 2 7 mph 1005.6mb 51f 54f
9:04pm 4.5ft 5s 4
mph
1005.5mb 52f 55f
8:04pm 4.5ft 8s 4 9 mph 1005.4mb 51f 55f
7:04pm 4.5ft 8s 9 13 mph 1006mb 51f 56f
6:04pm 5ft 8s 13 16 mph 1005.1mb 51f 56f
5:04pm 4.5ft 8s 9 11 mph 1005.6mb 52f 55f
4:04pm 3.5ft 8s 16 18 mph 1006.2mb 52f 56f
3:04pm 4ft 8s 16 18 mph 1006.7mb 53f 55f
2:04pm 2.5ft 4s 13 16 mph 1006.8mb 51f 55f
1:04pm 3.5ft 8s 16 18 mph 1007.4mb 50f 55f
12:04pm 3ft 8s 13 16 mph 1008.6mb 52f 55f
11:04am 3ft 8s 7
mph
1011.9mb 52f 55f
10:04am 2.5ft 8s 4 7 mph 1012.7mb 52f 55f
9:04am 3.5ft 8s 7 9 mph 1012.1mb 51f 55f
8:04am 3ft 8s 9 11 mph 1012.1mb 51f 55f
7:04am 2.5ft 8s 9 11 mph 1012mb 51f 55f
6:04am 3ft 8s 7
mph
1012.9mb 53f 55f
5:04am 3.5ft 8s 7
mph
1013.2mb 54f 56f
4:04am 2.5ft 8s 4 7 mph 1013.2mb 54f 55f
3:04am 2.5ft 8s 4 7 mph 1013.5mb 53f 55f
2:04am 2.5ft 8s 7
mph
1013.8mb 53f 56f
1:04am 3ft 8s 7 9 mph 1014.2mb 55f 56f
12:04am 3ft 6s 4 7 mph 1014.3mb 54f 56f
Tue 06/30 11:04pm 3.5ft 8s 7 9 mph 1014.6mb 55f 57f
10:04pm 3.5ft 8s 7
mph
1014.7mb 55f 57f
9:04pm 3.5ft 8s 7
mph
1014.2mb 55f 57f
8:04pm 3.5ft 8s 7 9 mph 1013.7mb 54f 57f
6:04pm 3.5ft 8s 2 4 mph 1014.4mb 52f 58f
5:04pm 4ft 8s 4 7 mph 1014.9mb 53f 58f
4:04pm 4ft 8s 7 9 mph 1015.2mb 53f 58f
3:04pm 3.5ft 8s 4
mph
1015.1mb 55f 58f
2:04pm 3.5ft 8s 7
mph
1015.3mb 55f 58f
1:04pm 4ft 8s 2 4 mph 1015.2mb 54f 57f
12:04pm 4ft 11s 4
mph
1015.2mb 54f 58f
11:04am 4.5ft 8s 4
mph
1015.1mb 53f 58f
10:04am 5ft 11s 2
mph
1014.9mb 51f 57f
9:04am 4.5ft 8s 4
mph
1015.3mb 50f 55f
8:04am 4.5ft 11s 4 9 mph 1014.6mb 51f 55f
7:04am 5.5ft 8s 4 7 mph 1014.1mb 51f 55f
6:04am 6ft 11s 2
mph
1014mb 51f 53f
5:04am 6ft 8s 4 7 mph 1013.5mb 51f 53f
4:04am 5.5ft 11s 4
mph
1013.3mb 51f 53f
3:04am 5ft 8s 2
mph
1012.8mb 51f 54f